sensor_id;sensor_type;location;lat;lon;timestamp;P1;durP1;ratioP1;P2;durP2;ratioP2
29662;SDS011;16578;53.266;7.920;2022-09-16T00:00:24;3.95;;;1.50;;
29662;SDS011;16578;53.266;7.920;2022-09-16T00:02:51;5.03;;;1.48;;
29662;SDS011;16578;53.266;7.920;2022-09-16T00:05:18;2.45;;;1.23;;
29662;SDS011;16578;53.266;7.920;2022-09-16T00:07:44;4.80;;;1.42;;
29662;SDS011;16578;53.266;7.920;2022-09-16T00:10:10;6.82;;;1.75;;
29662;SDS011;16578;53.266;7.920;2022-09-16T00:12:35;3.80;;;1.25;;
29662;SDS011;16578;53.266;7.920;2022-09-16T00:15:01;2.03;;;1.15;;
29662;SDS011;16578;53.266;7.920;2022-09-16T00:17:27;5.57;;;1.70;;
29662;SDS011;16578;53.266;7.920;2022-09-16T00:19:54;3.78;;;1.55;;
29662;SDS011;16578;53.266;7.920;2022-09-16T00:22:20;3.58;;;1.40;;
29662;SDS011;16578;53.266;7.920;2022-09-16T00:24:46;5.68;;;1.67;;
29662;SDS011;16578;53.266;7.920;2022-09-16T00:27:12;4.18;;;1.55;;
29662;SDS011;16578;53.266;7.920;2022-09-16T00:29:38;4.88;;;1.52;;
29662;SDS011;16578;53.266;7.920;2022-09-16T00:32:03;5.28;;;1.83;;
29662;SDS011;16578;53.266;7.920;2022-09-16T00:34:29;3.42;;;1.35;;
29662;SDS011;16578;53.266;7.920;2022-09-16T00:36:54;2.13;;;1.40;;
29662;SDS011;16578;53.266;7.920;2022-09-16T00:39:20;4.30;;;1.40;;
29662;SDS011;16578;53.266;7.920;2022-09-16T00:41:46;4.25;;;1.63;;
29662;SDS011;16578;53.266;7.920;2022-09-16T00:47:15;6.00;;;1.48;;
29662;SDS011;16578;53.266;7.920;2022-09-16T00:49:45;3.75;;;1.38;;
29662;SDS011;16578;53.266;7.920;2022-09-16T00:52:13;2.25;;;1.30;;
29662;SDS011;16578;53.266;7.920;2022-09-16T00:54:39;4.65;;;1.55;;
29662;SDS011;16578;53.266;7.920;2022-09-16T00:57:06;2.65;;;1.17;;
29662;SDS011;16578;53.266;7.920;2022-09-16T00:59:35;5.45;;;1.20;;
29662;SDS011;16578;53.266;7.920;2022-09-16T01:02:04;3.45;;;1.27;;
29662;SDS011;16578;53.266;7.920;2022-09-16T01:04:38;1.92;;;1.08;;
29662;SDS011;16578;53.266;7.920;2022-09-16T01:07:30;2.25;;;1.10;;
29662;SDS011;16578;53.266;7.920;2022-09-16T01:10:00;2.50;;;1.00;;
29662;SDS011;16578;53.266;7.920;2022-09-16T01:12:26;4.13;;;1.67;;
29662;SDS011;16578;53.266;7.920;2022-09-16T01:23:01;1.70;;;0.90;;
29662;SDS011;16578;53.266;7.920;2022-09-16T01:25:55;1.85;;;0.63;;
29662;SDS011;16578;53.266;7.920;2022-09-16T01:30:57;4.43;;;1.00;;
29662;SDS011;16578;53.266;7.920;2022-09-16T01:33:42;5.32;;;1.27;;
29662;SDS011;16578;53.266;7.920;2022-09-16T01:39:33;3.08;;;1.23;;
29662;SDS011;16578;53.266;7.920;2022-09-16T01:47:35;4.30;;;1.48;;
29662;SDS011;16578;53.266;7.920;2022-09-16T01:50:05;2.25;;;1.13;;
29662;SDS011;16578;53.266;7.920;2022-09-16T01:52:57;3.60;;;1.35;;
29662;SDS011;16578;53.266;7.920;2022-09-16T01:55:35;2.90;;;1.05;;
29662;SDS011;16578;53.266;7.920;2022-09-16T01:58:24;3.22;;;1.27;;
29662;SDS011;16578;53.266;7.920;2022-09-16T02:00:58;4.00;;;1.25;;
29662;SDS011;16578;53.266;7.920;2022-09-16T02:03:30;2.40;;;0.95;;
29662;SDS011;16578;53.266;7.920;2022-09-16T02:06:10;2.55;;;1.10;;
29662;SDS011;16578;53.266;7.920;2022-09-16T02:09:03;1.67;;;1.00;;
29662;SDS011;16578;53.266;7.920;2022-09-16T02:11:32;3.50;;;1.70;;
29662;SDS011;16578;53.266;7.920;2022-09-16T02:14:05;5.13;;;1.20;;
29662;SDS011;16578;53.266;7.920;2022-09-16T02:16:46;4.47;;;1.13;;
29662;SDS011;16578;53.266;7.920;2022-09-16T02:19:32;2.15;;;0.93;;
29662;SDS011;16578;53.266;7.920;2022-09-16T02:22:13;4.35;;;1.48;;
29662;SDS011;16578;53.266;7.920;2022-09-16T02:24:42;2.88;;;1.20;;
29662;SDS011;16578;53.266;7.920;2022-09-16T02:27:11;3.70;;;1.35;;
29662;SDS011;16578;53.266;7.920;2022-09-16T02:29:48;2.72;;;0.90;;
29662;SDS011;16578;53.266;7.920;2022-09-16T02:32:18;3.25;;;1.45;;
29662;SDS011;16578;53.266;7.920;2022-09-16T02:34:47;3.13;;;1.02;;
29662;SDS011;16578;53.266;7.920;2022-09-16T02:37:20;3.38;;;1.35;;
29662;SDS011;16578;53.266;7.920;2022-09-16T02:39:48;5.25;;;1.27;;
29662;SDS011;16578;53.266;7.920;2022-09-16T02:42:18;4.93;;;1.15;;
29662;SDS011;16578;53.266;7.920;2022-09-16T02:44:44;2.78;;;1.30;;
29662;SDS011;16578;53.266;7.920;2022-09-16T02:47:12;5.18;;;1.70;;
29662;SDS011;16578;53.266;7.920;2022-09-16T02:50:46;3.38;;;1.13;;
29662;SDS011;16578;53.266;7.920;2022-09-16T02:58:02;2.22;;;1.10;;
29662;SDS011;16578;53.266;7.920;2022-09-16T03:00:30;3.70;;;1.50;;
29662;SDS011;16578;53.266;7.920;2022-09-16T03:03:00;4.15;;;1.35;;
29662;SDS011;16578;53.266;7.920;2022-09-16T03:05:29;2.30;;;1.20;;
29662;SDS011;16578;53.266;7.920;2022-09-16T03:07:55;4.05;;;1.15;;
29662;SDS011;16578;53.266;7.920;2022-09-16T03:10:22;5.30;;;1.38;;
29662;SDS011;16578;53.266;7.920;2022-09-16T03:23:43;3.45;;;1.30;;
29662;SDS011;16578;53.266;7.920;2022-09-16T03:31:57;6.53;;;1.30;;
29662;SDS011;16578;53.266;7.920;2022-09-16T03:34:36;2.17;;;1.02;;
29662;SDS011;16578;53.266;7.920;2022-09-16T03:37:05;2.80;;;1.02;;
29662;SDS011;16578;53.266;7.920;2022-09-16T03:39:34;3.78;;;1.20;;
29662;SDS011;16578;53.266;7.920;2022-09-16T03:42:04;3.80;;;1.23;;
29662;SDS011;16578;53.266;7.920;2022-09-16T03:44:38;5.47;;;1.70;;
29662;SDS011;16578;53.266;7.920;2022-09-16T03:47:05;2.97;;;1.10;;
29662;SDS011;16578;53.266;7.920;2022-09-16T03:49:32;3.40;;;1.27;;
29662;SDS011;16578;53.266;7.920;2022-09-16T03:51:58;3.35;;;1.00;;
29662;SDS011;16578;53.266;7.920;2022-09-16T03:54:24;4.60;;;1.40;;
29662;SDS011;16578;53.266;7.920;2022-09-16T03:56:49;4.13;;;1.27;;
29662;SDS011;16578;53.266;7.920;2022-09-16T03:59:15;3.00;;;1.05;;
29662;SDS011;16578;53.266;7.920;2022-09-16T04:01:41;4.05;;;1.30;;
29662;SDS011;16578;53.266;7.920;2022-09-16T04:04:07;2.22;;;1.08;;
29662;SDS011;16578;53.266;7.920;2022-09-16T04:06:33;3.67;;;1.13;;
29662;SDS011;16578;53.266;7.920;2022-09-16T04:09:00;2.58;;;1.40;;
29662;SDS011;16578;53.266;7.920;2022-09-16T04:11:27;4.90;;;1.30;;
29662;SDS011;16578;53.266;7.920;2022-09-16T04:13:53;3.53;;;1.05;;
29662;SDS011;16578;53.266;7.920;2022-09-16T04:16:19;2.90;;;1.17;;
29662;SDS011;16578;53.266;7.920;2022-09-16T04:18:46;2.00;;;0.85;;
29662;SDS011;16578;53.266;7.920;2022-09-16T04:21:12;2.83;;;1.10;;
29662;SDS011;16578;53.266;7.920;2022-09-16T04:23:38;3.45;;;1.20;;
29662;SDS011;16578;53.266;7.920;2022-09-16T04:26:04;3.60;;;1.38;;
29662;SDS011;16578;53.266;7.920;2022-09-16T04:28:30;4.25;;;1.45;;
29662;SDS011;16578;53.266;7.920;2022-09-16T04:31:04;5.15;;;1.35;;
29662;SDS011;16578;53.266;7.920;2022-09-16T04:33:37;4.60;;;1.17;;
29662;SDS011;16578;53.266;7.920;2022-09-16T04:36:10;4.53;;;1.45;;
29662;SDS011;16578;53.266;7.920;2022-09-16T04:38:37;2.65;;;1.27;;
29662;SDS011;16578;53.266;7.920;2022-09-16T04:41:08;2.80;;;1.10;;
29662;SDS011;16578;53.266;7.920;2022-09-16T04:43:39;2.90;;;1.08;;
29662;SDS011;16578;53.266;7.920;2022-09-16T04:46:05;3.63;;;1.60;;
29662;SDS011;16578;53.266;7.920;2022-09-16T04:48:32;4.82;;;1.17;;
29662;SDS011;16578;53.266;7.920;2022-09-16T04:51:06;3.63;;;1.42;;
29662;SDS011;16578;53.266;7.920;2022-09-16T04:53:34;4.50;;;1.48;;
29662;SDS011;16578;53.266;7.920;2022-09-16T04:56:02;4.57;;;1.52;;
29662;SDS011;16578;53.266;7.920;2022-09-16T04:58:31;3.28;;;1.40;;
29662;SDS011;16578;53.266;7.920;2022-09-16T05:01:07;5.07;;;1.50;;
29662;SDS011;16578;53.266;7.920;2022-09-16T05:03:38;3.80;;;1.17;;
29662;SDS011;16578;53.266;7.920;2022-09-16T05:06:05;6.30;;;1.40;;
29662;SDS011;16578;53.266;7.920;2022-09-16T05:08:32;4.22;;;1.50;;
29662;SDS011;16578;53.266;7.920;2022-09-16T05:11:06;4.97;;;1.63;;
29662;SDS011;16578;53.266;7.920;2022-09-16T05:13:36;3.17;;;1.20;;
29662;SDS011;16578;53.266;7.920;2022-09-16T05:16:04;6.28;;;1.65;;
29662;SDS011;16578;53.266;7.920;2022-09-16T05:21:01;4.40;;;1.33;;
29662;SDS011;16578;53.266;7.920;2022-09-16T05:23:28;4.45;;;1.48;;
29662;SDS011;16578;53.266;7.920;2022-09-16T05:25:54;2.75;;;1.42;;
29662;SDS011;16578;53.266;7.920;2022-09-16T05:28:20;3.13;;;1.20;;
29662;SDS011;16578;53.266;7.920;2022-09-16T05:30:46;2.88;;;1.42;;
29662;SDS011;16578;53.266;7.920;2022-09-16T05:33:12;8.18;;;2.00;;
29662;SDS011;16578;53.266;7.920;2022-09-16T05:35:38;4.75;;;1.35;;
29662;SDS011;16578;53.266;7.920;2022-09-16T05:38:03;4.47;;;1.80;;
29662;SDS011;16578;53.266;7.920;2022-09-16T05:40:29;4.88;;;1.70;;
29662;SDS011;16578;53.266;7.920;2022-09-16T05:42:54;5.18;;;1.58;;
29662;SDS011;16578;53.266;7.920;2022-09-16T05:45:20;4.07;;;1.30;;
29662;SDS011;16578;53.266;7.920;2022-09-16T05:47:49;5.28;;;1.48;;
29662;SDS011;16578;53.266;7.920;2022-09-16T05:50:15;4.78;;;1.63;;
29662;SDS011;16578;53.266;7.920;2022-09-16T05:52:41;5.45;;;1.48;;
29662;SDS011;16578;53.266;7.920;2022-09-16T05:55:06;4.30;;;1.52;;
29662;SDS011;16578;53.266;7.920;2022-09-16T05:57:32;5.65;;;1.52;;
29662;SDS011;16578;53.266;7.920;2022-09-16T05:59:58;5.05;;;1.40;;
29662;SDS011;16578;53.266;7.920;2022-09-16T06:02:24;4.63;;;1.30;;
29662;SDS011;16578;53.266;7.920;2022-09-16T06:04:49;4.97;;;1.73;;
29662;SDS011;16578;53.266;7.920;2022-09-16T06:07:15;6.28;;;1.77;;
29662;SDS011;16578;53.266;7.920;2022-09-16T06:09:41;6.13;;;1.60;;
29662;SDS011;16578;53.266;7.920;2022-09-16T06:12:07;4.50;;;1.23;;
29662;SDS011;16578;53.266;7.920;2022-09-16T06:14:34;5.43;;;1.60;;
29662;SDS011;16578;53.266;7.920;2022-09-16T06:16:59;2.83;;;1.13;;
29662;SDS011;16578;53.266;7.920;2022-09-16T06:19:25;4.40;;;1.40;;
29662;SDS011;16578;53.266;7.920;2022-09-16T06:21:51;3.22;;;1.48;;
29662;SDS011;16578;53.266;7.920;2022-09-16T06:24:17;6.15;;;1.45;;
29662;SDS011;16578;53.266;7.920;2022-09-16T06:26:44;5.90;;;1.75;;
29662;SDS011;16578;53.266;7.920;2022-09-16T06:29:10;6.97;;;2.03;;
29662;SDS011;16578;53.266;7.920;2022-09-16T06:31:36;6.55;;;1.50;;
29662;SDS011;16578;53.266;7.920;2022-09-16T06:34:03;6.03;;;1.45;;
29662;SDS011;16578;53.266;7.920;2022-09-16T06:36:34;5.53;;;1.55;;
29662;SDS011;16578;53.266;7.920;2022-09-16T06:39:02;2.95;;;1.40;;
29662;SDS011;16578;53.266;7.920;2022-09-16T06:41:29;4.10;;;1.40;;
29662;SDS011;16578;53.266;7.920;2022-09-16T06:43:55;6.47;;;1.52;;
29662;SDS011;16578;53.266;7.920;2022-09-16T06:46:23;6.22;;;1.50;;
29662;SDS011;16578;53.266;7.920;2022-09-16T06:48:50;4.57;;;1.50;;
29662;SDS011;16578;53.266;7.920;2022-09-16T06:51:23;4.80;;;1.52;;
29662;SDS011;16578;53.266;7.920;2022-09-16T06:53:57;5.72;;;1.50;;
29662;SDS011;16578;53.266;7.920;2022-09-16T06:56:24;7.05;;;1.50;;
29662;SDS011;16578;53.266;7.920;2022-09-16T06:58:50;4.82;;;1.35;;
29662;SDS011;16578;53.266;7.920;2022-09-16T07:01:35;5.30;;;1.63;;
29662;SDS011;16578;53.266;7.920;2022-09-16T07:04:02;6.00;;;1.40;;
29662;SDS011;16578;53.266;7.920;2022-09-16T07:06:30;5.13;;;1.58;;
29662;SDS011;16578;53.266;7.920;2022-09-16T07:08:57;3.92;;;1.08;;
29662;SDS011;16578;53.266;7.920;2022-09-16T07:11:23;8.20;;;1.70;;
29662;SDS011;16578;53.266;7.920;2022-09-16T07:13:49;5.45;;;1.42;;
29662;SDS011;16578;53.266;7.920;2022-09-16T07:16:16;2.85;;;1.20;;
29662;SDS011;16578;53.266;7.920;2022-09-16T07:18:42;5.65;;;1.75;;
29662;SDS011;16578;53.266;7.920;2022-09-16T07:21:14;8.00;;;1.92;;
29662;SDS011;16578;53.266;7.920;2022-09-16T07:23:41;5.93;;;1.67;;
29662;SDS011;16578;53.266;7.920;2022-09-16T07:26:08;8.63;;;2.20;;
29662;SDS011;16578;53.266;7.920;2022-09-16T07:31:02;5.82;;;1.60;;
29662;SDS011;16578;53.266;7.920;2022-09-16T07:33:30;5.07;;;1.58;;
29662;SDS011;16578;53.266;7.920;2022-09-16T07:35:59;6.78;;;1.60;;
29662;SDS011;16578;53.266;7.920;2022-09-16T07:38:26;5.20;;;2.25;;
29662;SDS011;16578;53.266;7.920;2022-09-16T07:40:53;7.18;;;1.90;;
29662;SDS011;16578;53.266;7.920;2022-09-16T07:43:18;5.40;;;1.70;;
29662;SDS011;16578;53.266;7.920;2022-09-16T07:45:44;5.93;;;2.00;;
29662;SDS011;16578;53.266;7.920;2022-09-16T07:48:09;4.60;;;1.58;;
29662;SDS011;16578;53.266;7.920;2022-09-16T07:50:35;5.68;;;1.60;;
29662;SDS011;16578;53.266;7.920;2022-09-16T07:53:00;5.82;;;1.90;;
29662;SDS011;16578;53.266;7.920;2022-09-16T07:55:27;4.72;;;1.80;;
29662;SDS011;16578;53.266;7.920;2022-09-16T07:57:52;5.13;;;2.50;;
29662;SDS011;16578;53.266;7.920;2022-09-16T08:00:18;7.20;;;2.60;;
29662;SDS011;16578;53.266;7.920;2022-09-16T08:02:44;6.70;;;2.35;;
29662;SDS011;16578;53.266;7.920;2022-09-16T08:05:09;7.05;;;2.42;;
29662;SDS011;16578;53.266;7.920;2022-09-16T08:07:35;4.15;;;1.83;;
29662;SDS011;16578;53.266;7.920;2022-09-16T08:10:01;7.00;;;2.15;;
29662;SDS011;16578;53.266;7.920;2022-09-16T08:12:27;6.60;;;1.95;;
29662;SDS011;16578;53.266;7.920;2022-09-16T08:14:58;5.97;;;1.88;;
29662;SDS011;16578;53.266;7.920;2022-09-16T08:17:24;9.07;;;2.50;;
29662;SDS011;16578;53.266;7.920;2022-09-16T08:19:50;6.32;;;1.90;;
29662;SDS011;16578;53.266;7.920;2022-09-16T08:22:16;6.57;;;2.33;;
29662;SDS011;16578;53.266;7.920;2022-09-16T08:24:41;10.48;;;1.85;;
29662;SDS011;16578;53.266;7.920;2022-09-16T08:27:07;4.75;;;2.05;;
29662;SDS011;16578;53.266;7.920;2022-09-16T08:29:33;7.30;;;1.83;;
29662;SDS011;16578;53.266;7.920;2022-09-16T08:31:58;6.78;;;1.98;;
29662;SDS011;16578;53.266;7.920;2022-09-16T08:34:24;7.25;;;2.00;;
29662;SDS011;16578;53.266;7.920;2022-09-16T08:36:49;5.00;;;1.50;;
29662;SDS011;16578;53.266;7.920;2022-09-16T08:39:15;9.07;;;1.95;;
29662;SDS011;16578;53.266;7.920;2022-09-16T08:44:53;10.45;;;2.35;;
29662;SDS011;16578;53.266;7.920;2022-09-16T08:47:48;4.47;;;1.48;;
29662;SDS011;16578;53.266;7.920;2022-09-16T08:50:37;6.45;;;2.05;;
29662;SDS011;16578;53.266;7.920;2022-09-16T08:53:09;8.48;;;2.10;;
29662;SDS011;16578;53.266;7.920;2022-09-16T08:56:02;9.70;;;2.22;;
29662;SDS011;16578;53.266;7.920;2022-09-16T08:58:37;7.68;;;2.30;;
29662;SDS011;16578;53.266;7.920;2022-09-16T09:01:27;8.65;;;2.00;;
29662;SDS011;16578;53.266;7.920;2022-09-16T09:03:54;7.65;;;2.08;;
29662;SDS011;16578;53.266;7.920;2022-09-16T09:09:31;6.60;;;2.15;;
29662;SDS011;16578;53.266;7.920;2022-09-16T09:12:16;6.32;;;1.92;;
29662;SDS011;16578;53.266;7.920;2022-09-16T09:15:07;10.15;;;2.47;;
29662;SDS011;16578;53.266;7.920;2022-09-16T09:17:52;6.97;;;2.15;;
29662;SDS011;16578;53.266;7.920;2022-09-16T09:20:41;6.40;;;2.00;;
29662;SDS011;16578;53.266;7.920;2022-09-16T09:31:40;7.38;;;2.10;;
29662;SDS011;16578;53.266;7.920;2022-09-16T09:43:13;12.32;;;2.35;;
29662;SDS011;16578;53.266;7.920;2022-09-16T09:45:53;5.20;;;2.00;;
29662;SDS011;16578;53.266;7.920;2022-09-16T09:51:00;4.22;;;1.20;;
29662;SDS011;16578;53.266;7.920;2022-09-16T09:53:35;6.20;;;1.20;;
29662;SDS011;16578;53.266;7.920;2022-09-16T09:56:12;2.95;;;1.10;;
29662;SDS011;16578;53.266;7.920;2022-09-16T09:59:00;5.72;;;1.30;;
29662;SDS011;16578;53.266;7.920;2022-09-16T10:01:27;4.65;;;1.33;;
29662;SDS011;16578;53.266;7.920;2022-09-16T10:03:52;4.45;;;1.52;;
29662;SDS011;16578;53.266;7.920;2022-09-16T10:06:22;4.50;;;1.38;;
29662;SDS011;16578;53.266;7.920;2022-09-16T10:08:55;4.47;;;1.42;;
29662;SDS011;16578;53.266;7.920;2022-09-16T10:11:28;2.90;;;1.15;;
29662;SDS011;16578;53.266;7.920;2022-09-16T10:13:57;3.42;;;1.23;;
29662;SDS011;16578;53.266;7.920;2022-09-16T10:16:26;4.53;;;1.20;;
29662;SDS011;16578;53.266;7.920;2022-09-16T10:19:03;3.95;;;1.25;;
29662;SDS011;16578;53.266;7.920;2022-09-16T10:24:32;2.88;;;1.20;;
29662;SDS011;16578;53.266;7.920;2022-09-16T10:27:00;2.72;;;0.88;;
29662;SDS011;16578;53.266;7.920;2022-09-16T10:29:41;2.70;;;1.30;;
29662;SDS011;16578;53.266;7.920;2022-09-16T10:32:06;2.95;;;1.27;;
29662;SDS011;16578;53.266;7.920;2022-09-16T10:34:36;6.28;;;1.83;;
29662;SDS011;16578;53.266;7.920;2022-09-16T10:39:56;4.22;;;1.50;;
29662;SDS011;16578;53.266;7.920;2022-09-16T10:42:26;4.85;;;1.40;;
29662;SDS011;16578;53.266;7.920;2022-09-16T10:45:05;3.70;;;1.30;;
29662;SDS011;16578;53.266;7.920;2022-09-16T10:47:59;5.00;;;1.45;;
29662;SDS011;16578;53.266;7.920;2022-09-16T10:50:29;3.78;;;1.23;;
29662;SDS011;16578;53.266;7.920;2022-09-16T10:52:54;3.72;;;1.20;;
29662;SDS011;16578;53.266;7.920;2022-09-16T10:58:05;5.57;;;1.75;;
29662;SDS011;16578;53.266;7.920;2022-09-16T11:00:36;4.22;;;1.58;;
29662;SDS011;16578;53.266;7.920;2022-09-16T11:14:35;9.13;;;2.28;;
29662;SDS011;16578;53.266;7.920;2022-09-16T11:20:17;5.75;;;2.10;;
29662;SDS011;16578;53.266;7.920;2022-09-16T11:28:39;6.80;;;1.75;;
29662;SDS011;16578;53.266;7.920;2022-09-16T11:36:39;6.75;;;2.00;;
29662;SDS011;16578;53.266;7.920;2022-09-16T11:45:02;5.72;;;2.22;;
29662;SDS011;16578;53.266;7.920;2022-09-16T11:51:06;5.55;;;2.10;;
29662;SDS011;16578;53.266;7.920;2022-09-16T11:56:36;7.00;;;2.60;;
29662;SDS011;16578;53.266;7.920;2022-09-16T11:59:25;10.30;;;2.80;;
29662;SDS011;16578;53.266;7.920;2022-09-16T12:01:55;7.00;;;2.90;;
29662;SDS011;16578;53.266;7.920;2022-09-16T12:13:04;16.08;;;3.50;;
29662;SDS011;16578;53.266;7.920;2022-09-16T12:15:41;9.68;;;2.58;;
29662;SDS011;16578;53.266;7.920;2022-09-16T12:18:20;8.52;;;2.90;;
29662;SDS011;16578;53.266;7.920;2022-09-16T12:23:41;14.15;;;3.70;;
29662;SDS011;16578;53.266;7.920;2022-09-16T12:26:17;15.20;;;3.28;;
29662;SDS011;16578;53.266;7.920;2022-09-16T12:28:49;12.70;;;2.97;;
29662;SDS011;16578;53.266;7.920;2022-09-16T12:34:11;10.15;;;3.45;;
29662;SDS011;16578;53.266;7.920;2022-09-16T12:36:48;11.68;;;3.22;;
29662;SDS011;16578;53.266;7.920;2022-09-16T12:39:21;7.90;;;2.67;;
29662;SDS011;16578;53.266;7.920;2022-09-16T12:44:51;8.65;;;3.00;;
29662;SDS011;16578;53.266;7.920;2022-09-16T12:47:24;13.55;;;3.72;;
29662;SDS011;16578;53.266;7.920;2022-09-16T12:58:05;10.57;;;3.42;;
29662;SDS011;16578;53.266;7.920;2022-09-16T13:03:40;13.43;;;3.80;;
29662;SDS011;16578;53.266;7.920;2022-09-16T13:06:21;15.27;;;3.50;;
29662;SDS011;16578;53.266;7.920;2022-09-16T13:08:52;12.07;;;3.33;;
29662;SDS011;16578;53.266;7.920;2022-09-16T13:11:20;12.52;;;3.60;;
29662;SDS011;16578;53.266;7.920;2022-09-16T13:13:49;10.63;;;3.13;;
29662;SDS011;16578;53.266;7.920;2022-09-16T13:16:34;13.90;;;2.92;;
29662;SDS011;16578;53.266;7.920;2022-09-16T13:21:47;7.25;;;1.95;;
29662;SDS011;16578;53.266;7.920;2022-09-16T13:24:23;6.50;;;1.88;;
29662;SDS011;16578;53.266;7.920;2022-09-16T13:27:23;8.50;;;2.40;;
29662;SDS011;16578;53.266;7.920;2022-09-16T13:30:10;5.07;;;1.80;;
29662;SDS011;16578;53.266;7.920;2022-09-16T13:32:56;7.28;;;2.13;;
29662;SDS011;16578;53.266;7.920;2022-09-16T13:35:45;7.65;;;1.95;;
29662;SDS011;16578;53.266;7.920;2022-09-16T13:46:05;3.47;;;1.25;;
29662;SDS011;16578;53.266;7.920;2022-09-16T13:48:34;5.63;;;1.50;;
29662;SDS011;16578;53.266;7.920;2022-09-16T13:51:12;5.00;;;1.42;;
29662;SDS011;16578;53.266;7.920;2022-09-16T13:53:45;5.15;;;1.40;;
29662;SDS011;16578;53.266;7.920;2022-09-16T13:59:06;4.28;;;1.25;;
29662;SDS011;16578;53.266;7.920;2022-09-16T14:04:36;4.82;;;1.75;;
29662;SDS011;16578;53.266;7.920;2022-09-16T14:07:19;5.20;;;1.35;;
29662;SDS011;16578;53.266;7.920;2022-09-16T14:10:05;4.05;;;1.10;;
29662;SDS011;16578;53.266;7.920;2022-09-16T14:15:22;5.88;;;1.70;;
29662;SDS011;16578;53.266;7.920;2022-09-16T14:17:50;7.40;;;1.85;;
29662;SDS011;16578;53.266;7.920;2022-09-16T14:20:21;6.63;;;1.77;;
29662;SDS011;16578;53.266;7.920;2022-09-16T14:22:58;6.15;;;1.58;;
29662;SDS011;16578;53.266;7.920;2022-09-16T14:25:30;5.43;;;2.00;;
29662;SDS011;16578;53.266;7.920;2022-09-16T14:30:46;5.95;;;1.40;;
29662;SDS011;16578;53.266;7.920;2022-09-16T14:33:13;12.45;;;6.45;;
29662;SDS011;16578;53.266;7.920;2022-09-16T14:35:39;8.98;;;3.50;;
29662;SDS011;16578;53.266;7.920;2022-09-16T14:38:08;8.25;;;2.50;;
29662;SDS011;16578;53.266;7.920;2022-09-16T14:40:33;7.25;;;2.13;;
29662;SDS011;16578;53.266;7.920;2022-09-16T14:43:05;4.88;;;2.03;;
29662;SDS011;16578;53.266;7.920;2022-09-16T14:48:00;3.25;;;1.42;;
29662;SDS011;16578;53.266;7.920;2022-09-16T14:50:30;4.97;;;1.60;;
29662;SDS011;16578;53.266;7.920;2022-09-16T14:53:00;5.40;;;1.67;;
29662;SDS011;16578;53.266;7.920;2022-09-16T14:55:29;3.78;;;1.40;;
29662;SDS011;16578;53.266;7.920;2022-09-16T14:58:00;6.47;;;1.85;;
29662;SDS011;16578;53.266;7.920;2022-09-16T15:00:31;6.45;;;2.13;;
29662;SDS011;16578;53.266;7.920;2022-09-16T15:03:11;6.28;;;1.55;;
29662;SDS011;16578;53.266;7.920;2022-09-16T15:05:42;6.63;;;1.90;;
29662;SDS011;16578;53.266;7.920;2022-09-16T15:10:46;5.10;;;2.30;;
29662;SDS011;16578;53.266;7.920;2022-09-16T15:13:13;9.30;;;3.00;;
29662;SDS011;16578;53.266;7.920;2022-09-16T15:16:00;8.75;;;2.30;;
29662;SDS011;16578;53.266;7.920;2022-09-16T15:18:33;4.78;;;1.83;;
29662;SDS011;16578;53.266;7.920;2022-09-16T15:23:34;10.82;;;1.90;;
29662;SDS011;16578;53.266;7.920;2022-09-16T15:26:10;5.80;;;2.03;;
29662;SDS011;16578;53.266;7.920;2022-09-16T15:28:36;6.05;;;1.70;;
29662;SDS011;16578;53.266;7.920;2022-09-16T15:31:12;8.38;;;2.22;;
29662;SDS011;16578;53.266;7.920;2022-09-16T15:38:59;6.32;;;1.83;;
29662;SDS011;16578;53.266;7.920;2022-09-16T15:41:24;4.85;;;1.90;;
29662;SDS011;16578;53.266;7.920;2022-09-16T15:43:50;7.72;;;1.70;;
29662;SDS011;16578;53.266;7.920;2022-09-16T15:46:17;4.22;;;1.45;;
29662;SDS011;16578;53.266;7.920;2022-09-16T15:54:06;5.93;;;1.50;;
29662;SDS011;16578;53.266;7.920;2022-09-16T15:56:53;4.20;;;1.60;;
29662;SDS011;16578;53.266;7.920;2022-09-16T15:59:35;8.82;;;2.03;;
29662;SDS011;16578;53.266;7.920;2022-09-16T16:04:47;6.53;;;1.65;;
29662;SDS011;16578;53.266;7.920;2022-09-16T16:07:13;5.72;;;2.40;;
29662;SDS011;16578;53.266;7.920;2022-09-16T16:13:00;7.93;;;1.65;;
29662;SDS011;16578;53.266;7.920;2022-09-16T16:15:29;5.80;;;1.97;;
29662;SDS011;16578;53.266;7.920;2022-09-16T16:18:02;6.00;;;2.10;;
29662;SDS011;16578;53.266;7.920;2022-09-16T16:20:31;4.53;;;1.70;;
29662;SDS011;16578;53.266;7.920;2022-09-16T16:22:58;5.13;;;1.80;;
29662;SDS011;16578;53.266;7.920;2022-09-16T16:25:24;8.48;;;1.63;;
29662;SDS011;16578;53.266;7.920;2022-09-16T16:27:51;4.93;;;1.55;;
29662;SDS011;16578;53.266;7.920;2022-09-16T16:30:16;4.82;;;1.63;;
29662;SDS011;16578;53.266;7.920;2022-09-16T16:32:43;6.78;;;1.35;;
29662;SDS011;16578;53.266;7.920;2022-09-16T16:35:08;6.18;;;1.35;;
29662;SDS011;16578;53.266;7.920;2022-09-16T16:37:34;4.03;;;1.25;;
29662;SDS011;16578;53.266;7.920;2022-09-16T16:40:00;4.07;;;1.10;;
29662;SDS011;16578;53.266;7.920;2022-09-16T16:42:27;4.65;;;1.60;;
29662;SDS011;16578;53.266;7.920;2022-09-16T16:44:52;3.70;;;1.60;;
29662;SDS011;16578;53.266;7.920;2022-09-16T16:47:19;2.78;;;1.33;;
29662;SDS011;16578;53.266;7.920;2022-09-16T16:49:45;4.05;;;2.10;;
29662;SDS011;16578;53.266;7.920;2022-09-16T16:52:11;5.63;;;2.47;;
29662;SDS011;16578;53.266;7.920;2022-09-16T16:54:36;6.68;;;2.85;;
29662;SDS011;16578;53.266;7.920;2022-09-16T16:57:02;3.83;;;2.03;;
29662;SDS011;16578;53.266;7.920;2022-09-16T16:59:28;4.03;;;2.00;;
29662;SDS011;16578;53.266;7.920;2022-09-16T17:01:54;3.20;;;1.65;;
29662;SDS011;16578;53.266;7.920;2022-09-16T17:04:21;3.22;;;1.38;;
29662;SDS011;16578;53.266;7.920;2022-09-16T17:06:47;4.22;;;1.40;;
29662;SDS011;16578;53.266;7.920;2022-09-16T17:09:13;3.72;;;1.30;;
29662;SDS011;16578;53.266;7.920;2022-09-16T17:11:58;4.18;;;1.27;;
29662;SDS011;16578;53.266;7.920;2022-09-16T17:14:25;4.90;;;1.52;;
29662;SDS011;16578;53.266;7.920;2022-09-16T17:16:52;3.85;;;1.67;;
29662;SDS011;16578;53.266;7.920;2022-09-16T17:19:19;3.60;;;1.40;;
29662;SDS011;16578;53.266;7.920;2022-09-16T17:21:45;3.85;;;1.10;;
29662;SDS011;16578;53.266;7.920;2022-09-16T17:26:39;4.50;;;1.27;;
29662;SDS011;16578;53.266;7.920;2022-09-16T17:29:05;8.95;;;1.85;;
29662;SDS011;16578;53.266;7.920;2022-09-16T17:31:34;3.78;;;1.40;;
29662;SDS011;16578;53.266;7.920;2022-09-16T17:34:03;6.93;;;1.80;;
29662;SDS011;16578;53.266;7.920;2022-09-16T17:36:34;6.63;;;1.90;;
29662;SDS011;16578;53.266;7.920;2022-09-16T17:39:04;5.82;;;1.77;;
29662;SDS011;16578;53.266;7.920;2022-09-16T17:41:42;8.43;;;2.03;;
29662;SDS011;16578;53.266;7.920;2022-09-16T17:44:09;4.13;;;1.50;;
29662;SDS011;16578;53.266;7.920;2022-09-16T17:46:36;5.03;;;1.67;;
29662;SDS011;16578;53.266;7.920;2022-09-16T17:49:06;8.18;;;1.80;;
29662;SDS011;16578;53.266;7.920;2022-09-16T17:51:39;6.65;;;1.92;;
29662;SDS011;16578;53.266;7.920;2022-09-16T17:54:05;5.35;;;1.88;;
29662;SDS011;16578;53.266;7.920;2022-09-16T17:56:32;5.03;;;1.80;;
29662;SDS011;16578;53.266;7.920;2022-09-16T17:58:58;5.20;;;1.80;;
29662;SDS011;16578;53.266;7.920;2022-09-16T18:01:24;4.95;;;2.00;;
29662;SDS011;16578;53.266;7.920;2022-09-16T18:03:51;8.32;;;1.83;;
29662;SDS011;16578;53.266;7.920;2022-09-16T18:06:19;4.83;;;1.60;;
29662;SDS011;16578;53.266;7.920;2022-09-16T18:08:49;4.70;;;1.50;;
29662;SDS011;16578;53.266;7.920;2022-09-16T18:11:16;4.40;;;1.65;;
29662;SDS011;16578;53.266;7.920;2022-09-16T18:13:42;6.80;;;1.90;;
29662;SDS011;16578;53.266;7.920;2022-09-16T18:16:18;6.50;;;2.00;;
29662;SDS011;16578;53.266;7.920;2022-09-16T18:18:44;4.78;;;1.25;;
29662;SDS011;16578;53.266;7.920;2022-09-16T18:21:14;2.17;;;1.10;;
29662;SDS011;16578;53.266;7.920;2022-09-16T18:23:41;5.38;;;1.77;;
29662;SDS011;16578;53.266;7.920;2022-09-16T18:26:09;5.07;;;1.98;;